createdAt,value
2023-04-23T00:01:48.193Z,100624.00
2023-04-23T00:04:19.081Z,100621.00
2023-04-23T00:06:47.606Z,100625.00
2023-04-23T00:09:16.947Z,100625.00
2023-04-23T00:11:44.289Z,100613.00
2023-04-23T00:14:11.896Z,100620.00
2023-04-23T00:16:40.860Z,100624.00
2023-04-23T00:19:07.665Z,100616.00
2023-04-23T00:21:34.241Z,100612.00
2023-04-23T00:24:01.159Z,100610.00
2023-04-23T00:26:27.776Z,100615.00
2023-04-23T00:28:54.396Z,100612.00
2023-04-23T00:31:22.721Z,100626.00
2023-04-23T00:33:49.492Z,100618.00
2023-04-23T00:36:16.170Z,100612.00
2023-04-23T00:38:42.772Z,100616.00
2023-04-23T00:41:09.480Z,100607.00
2023-04-23T00:43:36.714Z,100613.00
2023-04-23T00:46:03.577Z,100611.00
2023-04-23T00:48:30.355Z,100608.00
2023-04-23T00:51:03.339Z,100599.00
2023-04-23T00:53:30.740Z,100596.00
2023-04-23T00:55:57.959Z,100600.00
2023-04-23T00:58:24.630Z,100592.00
2023-04-23T01:00:52.613Z,100588.00
2023-04-23T01:03:22.114Z,100580.00
2023-04-23T01:05:49.945Z,100581.00
2023-04-23T01:08:17.624Z,100579.00
2023-04-23T01:10:47.930Z,100573.00
2023-04-23T01:13:15.080Z,100582.00
2023-04-23T01:15:42.728Z,100577.00
2023-04-23T01:18:09.597Z,100572.00
2023-04-23T01:20:36.437Z,100569.00
2023-04-23T01:23:03.877Z,100576.00
2023-04-23T01:25:30.598Z,100573.00
2023-04-23T01:27:58.693Z,100570.00
2023-04-23T01:30:27.671Z,100565.00
2023-04-23T01:32:56.488Z,100562.00
2023-04-23T01:35:24.193Z,100559.00
2023-04-23T01:37:52.522Z,100549.00
2023-04-23T01:40:20.344Z,100552.00
2023-04-23T01:42:48.566Z,100554.00
2023-04-23T01:45:15.682Z,100546.00
2023-04-23T01:47:42.544Z,100541.00
2023-04-23T01:50:09.816Z,100539.00
2023-04-23T01:52:36.657Z,100540.00
2023-04-23T01:55:03.903Z,100539.00
2023-04-23T01:57:30.791Z,100542.00
2023-04-23T02:00:08.166Z,100542.00
2023-04-23T02:02:39.732Z,100536.00
2023-04-23T02:05:15.234Z,100539.00
2023-04-23T02:07:42.496Z,100534.00
2023-04-23T02:10:09.943Z,100531.00
2023-04-23T02:12:37.764Z,100530.00
2023-04-23T02:15:06.661Z,100530.00
2023-04-23T02:17:33.501Z,100522.00
2023-04-23T02:20:00.294Z,100528.00
2023-04-23T02:22:28.289Z,100531.00
2023-04-23T02:24:55.479Z,100535.00
2023-04-23T02:27:22.178Z,100532.00
2023-04-23T02:29:49.392Z,100523.00
2023-04-23T02:32:16.168Z,100526.00
2023-04-23T02:34:43.229Z,100520.00
2023-04-23T02:37:10.381Z,100526.00
2023-04-23T02:39:39.205Z,100529.00
2023-04-23T02:42:06.165Z,100526.00
2023-04-23T02:44:33.083Z,100527.00
2023-04-23T02:46:59.973Z,100529.00
2023-04-23T02:49:26.775Z,100527.00
2023-04-23T02:51:56.444Z,100522.00
2023-04-23T02:54:23.951Z,100523.00
2023-04-23T02:56:50.748Z,100518.00
2023-04-23T02:59:17.375Z,100517.00
2023-04-23T03:01:44.103Z,100514.00
2023-04-23T03:04:12.408Z,100525.00
2023-04-23T03:06:39.106Z,100531.00
2023-04-23T03:09:07.793Z,100529.00
2023-04-23T03:11:34.488Z,100533.00
2023-04-23T03:14:01.186Z,100522.00
2023-04-23T03:16:29.343Z,100517.00
2023-04-23T03:18:56.341Z,100519.00
2023-04-23T03:21:23.033Z,100517.00
2023-04-23T03:23:49.731Z,100524.00
2023-04-23T03:26:16.398Z,100525.00
2023-04-23T03:28:43.167Z,100523.00
2023-04-23T03:31:09.880Z,100529.00
2023-04-23T03:33:36.539Z,100525.00
2023-04-23T03:36:03.335Z,100520.00
2023-04-23T03:38:30.082Z,100523.00
2023-04-23T03:40:56.739Z,100520.00
2023-04-23T03:43:23.693Z,100516.00
2023-04-23T03:45:50.443Z,100513.00
2023-04-23T03:48:17.067Z,100512.00
2023-04-23T03:50:43.827Z,100513.00
2023-04-23T03:53:10.553Z,100517.00
2023-04-23T03:55:37.220Z,100512.00
2023-04-23T03:58:04.021Z,100519.00
2023-04-23T04:00:30.664Z,100515.00
2023-04-23T04:02:57.470Z,100507.00
2023-04-23T04:05:24.302Z,100507.00
2023-04-23T04:07:50.972Z,100512.00
2023-04-23T04:10:17.690Z,100509.00
2023-04-23T04:12:46.755Z,100510.00
2023-04-23T04:15:14.309Z,100521.00
2023-04-23T04:17:41.032Z,100509.00
2023-04-23T04:20:08.574Z,100507.00
2023-04-23T04:22:35.249Z,100503.00
2023-04-23T04:25:02.248Z,100504.00
2023-04-23T04:27:28.814Z,100506.00
2023-04-23T04:29:55.897Z,100501.00
2023-04-23T04:32:23.577Z,100495.00
2023-04-23T04:34:50.793Z,100501.00
2023-04-23T04:37:17.816Z,100492.00
2023-04-23T04:39:44.499Z,100492.00
2023-04-23T04:42:13.191Z,100498.00
2023-04-23T04:44:40.126Z,100498.00
2023-04-23T04:47:09.951Z,100503.00
2023-04-23T04:49:37.137Z,100504.00
2023-04-23T04:52:03.803Z,100503.00
2023-04-23T04:54:30.481Z,100499.00
2023-04-23T04:56:57.259Z,100492.00
2023-04-23T04:59:23.941Z,100486.00
2023-04-23T05:01:50.686Z,100485.00
2023-04-23T05:04:17.429Z,100489.00
2023-04-23T05:06:46.474Z,100494.00
2023-04-23T05:09:13.125Z,100488.00
2023-04-23T05:11:41.194Z,100481.00
2023-04-23T05:14:08.024Z,100479.00
2023-04-23T05:16:34.987Z,100480.00
2023-04-23T05:19:01.719Z,100481.00
2023-04-23T05:21:28.550Z,100475.00
2023-04-23T05:23:55.815Z,100476.00
2023-04-23T05:26:22.572Z,100483.00
2023-04-23T05:28:49.194Z,100485.00
2023-04-23T05:31:15.917Z,100483.00
2023-04-23T05:33:49.809Z,100489.00
2023-04-23T05:36:17.650Z,100493.00
2023-04-23T05:38:44.247Z,100496.00
2023-04-23T05:41:11.239Z,100505.00
2023-04-23T05:43:37.872Z,100499.00
2023-04-23T05:46:06.523Z,100496.00
2023-04-23T05:48:33.985Z,100490.00
2023-04-23T05:51:00.749Z,100490.00
2023-04-23T05:53:28.347Z,100484.00
2023-04-23T05:55:54.998Z,100478.00
2023-04-23T05:58:21.756Z,100486.00
2023-04-23T06:00:49.892Z,100477.00
2023-04-23T06:03:16.640Z,100490.00
2023-04-23T06:05:43.589Z,100480.00
2023-04-23T06:08:10.315Z,100493.00
2023-04-23T06:10:37.073Z,100482.00
2023-04-23T06:13:03.747Z,100478.00
2023-04-23T06:15:30.878Z,100478.00
2023-04-23T06:17:57.786Z,100477.00
2023-04-23T06:20:24.933Z,100473.00
2023-04-23T06:22:51.631Z,100473.00
2023-04-23T06:25:18.380Z,100465.00
2023-04-23T06:27:45.067Z,100461.00
2023-04-23T06:30:12.083Z,100464.00
2023-04-23T06:32:38.816Z,100467.00
2023-04-23T06:35:07.457Z,100461.00
2023-04-23T06:37:34.926Z,100463.00
2023-04-23T06:40:01.645Z,100462.00
2023-04-23T06:42:28.469Z,100457.00
2023-04-23T06:44:55.460Z,100462.00
2023-04-23T06:47:22.106Z,100451.00
2023-04-23T06:49:48.713Z,100450.00
2023-04-23T06:52:15.377Z,100441.00
2023-04-23T06:54:42.214Z,100443.00
2023-04-23T06:57:09.612Z,100435.00
2023-04-23T06:59:39.201Z,100439.00
2023-04-23T07:02:05.926Z,100443.00
2023-04-23T07:04:32.856Z,100437.00
2023-04-23T07:07:00.351Z,100439.00
2023-04-23T07:09:27.489Z,100446.00
2023-04-23T07:11:54.283Z,100436.00
2023-04-23T07:14:21.163Z,100444.00
2023-04-23T07:16:47.821Z,100436.00
2023-04-23T07:19:14.486Z,100430.00
2023-04-23T07:21:41.172Z,100436.00
2023-04-23T07:24:08.178Z,100429.00
2023-04-23T07:26:35.990Z,100427.00
2023-04-23T07:29:04.513Z,100422.00
2023-04-23T07:31:31.136Z,100423.00
2023-04-23T07:33:57.892Z,100439.00
2023-04-23T07:36:24.658Z,100433.00
2023-04-23T07:38:51.312Z,100428.00
2023-04-23T07:41:18.328Z,100423.00
2023-04-23T07:43:45.191Z,100427.00
2023-04-23T07:46:11.969Z,100423.00
2023-04-23T07:48:38.689Z,100408.00
2023-04-23T07:51:06.582Z,100406.00
2023-04-23T07:53:33.457Z,100409.00
2023-04-23T07:56:00.633Z,100407.00
2023-04-23T07:58:27.576Z,100415.00
2023-04-23T08:00:54.233Z,100411.00
2023-04-23T08:03:21.211Z,100402.00
2023-04-23T08:05:48.111Z,100409.00
2023-04-23T08:08:14.887Z,100407.00
2023-04-23T08:10:41.854Z,100410.00
2023-04-23T08:13:08.673Z,100409.00
2023-04-23T08:15:35.326Z,100407.00
2023-04-23T08:18:04.344Z,100420.00
2023-04-23T08:20:32.480Z,100407.00
2023-04-23T08:22:59.432Z,100408.00
2023-04-23T08:25:26.210Z,100401.00
2023-04-23T08:27:52.890Z,100409.00
2023-04-23T08:30:19.523Z,100397.00
2023-04-23T08:32:50.319Z,100397.00
2023-04-23T08:35:17.067Z,100402.00
2023-04-23T08:37:43.640Z,100411.00
2023-04-23T08:40:10.524Z,100406.00
2023-04-23T08:42:58.920Z,100411.00
2023-04-23T08:45:26.829Z,100409.00
2023-04-23T08:47:59.034Z,100408.00
2023-04-23T08:50:29.453Z,100412.00
2023-04-23T08:52:58.071Z,100419.00
2023-04-23T08:55:25.922Z,100422.00
2023-04-23T08:57:52.911Z,100415.00
2023-04-23T09:00:21.483Z,100429.00
2023-04-23T09:02:49.664Z,100420.00
2023-04-23T09:05:16.792Z,100418.00
2023-04-23T09:07:43.961Z,100412.00
2023-04-23T09:10:13.383Z,100415.00
2023-04-23T09:12:43.691Z,100420.00
2023-04-23T09:15:11.171Z,100413.00
2023-04-23T09:17:44.174Z,100399.00
2023-04-23T09:20:12.210Z,100404.00
2023-04-23T09:22:39.560Z,100399.00
2023-04-23T09:25:07.910Z,100403.00
2023-04-23T09:27:34.910Z,100405.00
2023-04-23T09:30:05.045Z,100398.00
2023-04-23T09:32:35.851Z,100396.00
2023-04-23T09:35:04.674Z,100399.00
2023-04-23T09:37:32.525Z,100403.00
2023-04-23T09:40:01.073Z,100392.00
2023-04-23T09:42:28.880Z,100390.00
2023-04-23T09:45:00.977Z,100396.00
2023-04-23T09:47:28.100Z,100385.00
2023-04-23T09:49:54.754Z,100380.00
2023-04-23T09:52:22.789Z,100368.00
2023-04-23T09:54:49.528Z,100372.00
2023-04-23T09:57:16.278Z,100366.00
2023-04-23T09:59:49.855Z,100361.00
2023-04-23T10:02:20.154Z,100367.00
2023-04-23T10:04:54.575Z,100355.00
2023-04-23T10:07:25.245Z,100361.00
2023-04-23T10:09:51.944Z,100353.00
2023-04-23T10:12:40.912Z,100357.00
2023-04-23T10:15:08.058Z,100352.00
2023-04-23T10:17:38.397Z,100361.00
2023-04-23T10:20:07.180Z,100346.00
2023-04-23T10:22:35.686Z,100348.00
2023-04-23T10:25:09.486Z,100339.00
2023-04-23T10:27:51.343Z,100331.00
2023-04-23T10:30:20.670Z,100326.00
2023-04-23T10:32:48.962Z,100342.00
2023-04-23T10:35:15.640Z,100314.00
2023-04-23T10:37:43.226Z,100314.00
2023-04-23T10:40:14.458Z,100306.00
2023-04-23T10:42:42.883Z,100311.00
2023-04-23T10:45:23.076Z,100306.00
2023-04-23T10:47:52.900Z,100300.00
2023-04-23T10:50:30.833Z,100309.00
2023-04-23T10:52:58.279Z,100309.00
2023-04-23T10:55:27.890Z,100288.00
2023-04-23T10:58:04.719Z,100298.00
2023-04-23T11:00:51.654Z,100294.00
2023-04-23T11:03:31.185Z,100290.00
2023-04-23T11:06:07.317Z,100289.00
2023-04-23T11:08:37.535Z,100288.00
2023-04-23T11:11:08.496Z,100291.00
2023-04-23T11:13:35.103Z,100284.00
2023-04-23T11:16:23.982Z,100265.00
2023-04-23T11:19:08.519Z,100273.00
2023-04-23T11:22:12.806Z,100264.00
2023-04-23T11:24:48.900Z,100260.00
2023-04-23T11:27:18.775Z,100259.00
2023-04-23T11:29:49.323Z,100248.00
2023-04-23T11:32:17.396Z,100245.00
2023-04-23T11:34:46.460Z,100245.00
2023-04-23T11:37:14.515Z,100237.00
2023-04-23T11:39:42.989Z,100237.00
2023-04-23T11:42:17.322Z,100235.00
2023-04-23T11:44:45.412Z,100221.00
2023-04-23T11:47:14.307Z,100218.00
2023-04-23T11:49:43.410Z,100216.00
2023-04-23T11:52:11.638Z,100217.00
2023-04-23T11:54:41.821Z,100215.00
2023-04-23T11:57:08.686Z,100204.00
2023-04-23T11:59:35.412Z,100196.00
2023-04-23T12:02:02.260Z,100196.00
2023-04-23T12:04:30.642Z,100192.00
2023-04-23T12:06:58.463Z,100192.00
2023-04-23T12:09:29.451Z,100170.00
2023-04-23T12:11:58.502Z,100169.00
2023-04-23T12:14:30.252Z,100170.00
2023-04-23T12:16:58.318Z,100171.00
2023-04-23T12:19:30.913Z,100159.00
2023-04-23T12:21:59.632Z,100150.00
2023-04-23T12:24:31.600Z,100148.00
2023-04-23T12:27:01.019Z,100148.00
2023-04-23T12:29:30.137Z,100142.00
2023-04-23T12:31:59.560Z,100134.00
2023-04-23T12:34:26.328Z,100136.00
2023-04-23T12:36:57.939Z,100122.00
2023-04-23T12:39:29.865Z,100119.00
2023-04-23T12:42:00.667Z,100119.00
2023-04-23T12:44:27.412Z,100116.00
2023-04-23T12:47:03.498Z,100124.00
2023-04-23T12:49:31.417Z,100108.00
2023-04-23T12:52:01.296Z,100103.00
2023-04-23T12:54:29.973Z,100101.00
2023-04-23T12:56:56.808Z,100093.00
2023-04-23T12:59:24.156Z,100092.00
2023-04-23T13:01:51.582Z,100090.00
2023-04-23T13:04:18.292Z,100078.00
2023-04-23T13:06:44.944Z,100068.00
2023-04-23T13:09:11.821Z,100068.00
2023-04-23T13:11:40.059Z,100060.00
2023-04-23T13:14:07.648Z,100059.00
2023-04-23T13:16:34.794Z,100059.00
2023-04-23T13:19:01.513Z,100054.00
2023-04-23T13:21:28.141Z,100053.00
2023-04-23T13:23:56.793Z,100046.00
2023-04-23T13:26:23.508Z,100052.00
2023-04-23T13:28:50.121Z,100048.00
2023-04-23T13:31:16.923Z,100050.00
2023-04-23T13:33:43.672Z,100051.00
2023-04-23T13:36:10.377Z,100038.00
2023-04-23T13:38:37.191Z,100027.00
2023-04-23T13:41:04.481Z,100027.00
2023-04-23T13:43:31.133Z,100025.00
2023-04-23T13:45:57.956Z,100021.00
2023-04-23T13:48:28.768Z,100030.00
2023-04-23T13:50:55.979Z,100025.00
2023-04-23T13:53:22.908Z,100001.00
2023-04-23T13:55:49.584Z,100001.00
2023-04-23T13:58:16.321Z,99998.00
2023-04-23T14:00:43.668Z,99999.00
2023-04-23T14:03:10.752Z,99996.00
2023-04-23T14:05:38.352Z,99990.00
2023-04-23T14:08:05.328Z,99985.00
2023-04-23T14:10:31.989Z,99985.00
2023-04-23T14:12:58.647Z,99977.00
2023-04-23T14:15:25.280Z,99979.00
2023-04-23T14:17:53.020Z,99966.00
2023-04-23T14:20:20.372Z,99956.00
2023-04-23T14:22:51.120Z,99962.00
2023-04-23T14:25:35.601Z,99958.00
2023-04-23T14:28:16.958Z,99954.00
2023-04-23T14:30:43.521Z,99938.00
2023-04-23T14:33:10.232Z,99947.00
2023-04-23T14:38:08.411Z,99937.00
2023-04-23T14:40:35.048Z,99938.00
2023-04-23T14:43:14.536Z,99928.00
2023-04-23T14:45:41.929Z,99921.00
2023-04-23T14:48:08.604Z,99922.00
2023-04-23T14:50:35.459Z,99919.00
2023-04-23T14:53:04.252Z,99909.00
2023-04-23T14:55:31.059Z,99911.00
2023-04-23T14:57:57.622Z,99908.00
2023-04-23T15:00:24.239Z,99902.00
2023-04-23T15:02:51.134Z,99899.00
2023-04-23T15:05:20.042Z,99889.00
2023-04-23T15:07:46.700Z,99888.00
2023-04-23T15:10:13.494Z,99883.00
2023-04-23T15:12:48.510Z,99883.00
2023-04-23T15:15:30.560Z,99887.00
2023-04-23T15:18:04.434Z,99882.00
2023-04-23T15:20:31.066Z,99874.00
2023-04-23T15:22:57.673Z,99870.00
2023-04-23T15:25:25.201Z,99866.00
2023-04-23T15:27:57.902Z,99866.00
2023-04-23T15:30:28.481Z,99868.00
2023-04-23T15:32:55.605Z,99859.00
2023-04-23T15:35:23.589Z,99850.00
2023-04-23T15:37:50.738Z,99852.00
2023-04-23T15:40:17.580Z,99848.00
2023-04-23T15:42:48.108Z,99846.00
2023-04-23T15:45:14.725Z,99842.00
2023-04-23T15:47:42.283Z,99840.00
2023-04-23T15:50:10.111Z,99834.00
2023-04-23T15:52:37.782Z,99839.00
2023-04-23T15:55:05.661Z,99832.00
2023-04-23T15:57:32.305Z,99829.00
2023-04-23T15:59:58.868Z,99826.00
2023-04-23T16:02:25.712Z,99826.00
2023-04-23T16:04:52.476Z,99825.00
2023-04-23T16:07:19.141Z,99826.00
2023-04-23T16:09:45.820Z,99818.00
2023-04-23T16:12:12.916Z,99817.00
2023-04-23T16:14:40.333Z,99810.00
2023-04-23T16:17:07.112Z,99800.00
2023-04-23T16:19:33.878Z,99803.00
2023-04-23T16:22:00.536Z,99800.00
2023-04-23T16:24:27.169Z,99799.00
2023-04-23T16:26:54.053Z,99798.00
2023-04-23T16:29:23.077Z,99791.00
2023-04-23T16:31:50.302Z,99799.00
2023-04-23T16:34:21.756Z,99801.00
2023-04-23T16:36:48.451Z,99798.00
2023-04-23T16:39:15.665Z,99804.00
2023-04-23T16:41:42.306Z,99806.00
2023-04-23T16:44:08.941Z,99812.00
2023-04-23T16:46:37.209Z,99809.00
2023-04-23T16:49:04.162Z,99805.00
2023-04-23T16:51:30.858Z,99807.00
2023-04-23T16:53:57.479Z,99811.00
2023-04-23T16:56:24.428Z,99839.00
2023-04-23T16:58:51.065Z,99840.00
2023-04-23T17:01:18.082Z,99844.00
2023-04-23T17:03:45.533Z,99845.00
2023-04-23T17:06:20.144Z,99850.00
2023-04-23T17:08:47.199Z,99840.00
2023-04-23T17:11:13.882Z,99841.00
2023-04-23T17:13:43.658Z,99848.00
2023-04-23T17:16:11.011Z,99846.00
2023-04-23T17:18:37.970Z,99839.00
2023-04-23T17:21:04.703Z,99847.00
2023-04-23T17:23:31.538Z,99846.00
2023-04-23T17:25:58.133Z,99857.00
2023-04-23T17:28:24.753Z,99849.00
2023-04-23T17:30:52.406Z,99857.00
2023-04-23T17:33:19.562Z,99863.00
2023-04-23T17:35:49.029Z,99862.00
2023-04-23T17:38:20.455Z,99871.00
2023-04-23T17:40:48.119Z,99879.00
2023-04-23T17:43:14.786Z,99880.00
2023-04-23T17:45:41.708Z,99882.00
2023-04-23T17:48:08.824Z,99892.00
2023-04-23T17:50:35.639Z,99902.00
2023-04-23T17:53:02.333Z,99897.00
2023-04-23T17:55:29.158Z,99897.00
2023-04-23T17:57:56.251Z,99904.00
2023-04-23T18:00:23.346Z,99907.00
2023-04-23T18:02:50.115Z,99915.00
2023-04-23T18:05:17.798Z,99918.00
2023-04-23T18:07:44.952Z,99921.00
2023-04-23T18:10:12.458Z,99920.00
2023-04-23T18:12:39.806Z,99927.00
2023-04-23T18:15:08.655Z,99922.00
2023-04-23T18:17:35.452Z,99922.00
2023-04-23T18:20:02.258Z,99927.00
2023-04-23T18:22:29.193Z,99939.00
2023-04-23T18:24:56.046Z,99938.00
2023-04-23T18:27:22.682Z,99946.00
2023-04-23T18:29:49.573Z,99950.00
2023-04-23T18:32:27.617Z,99958.00
2023-04-23T18:35:02.015Z,99953.00
2023-04-23T18:37:33.309Z,99959.00
2023-04-23T18:40:00.288Z,99968.00
2023-04-23T18:42:26.905Z,99970.00
2023-04-23T18:44:54.247Z,99984.00
2023-04-23T18:47:20.946Z,99975.00
2023-04-23T18:49:55.731Z,99984.00
2023-04-23T18:52:22.408Z,99986.00
2023-04-23T18:54:49.059Z,100000.00
2023-04-23T18:57:15.636Z,100003.00
2023-04-23T18:59:42.502Z,100001.00
2023-04-23T19:02:09.628Z,100001.00
2023-04-23T19:04:39.290Z,100009.00
2023-04-23T19:07:06.021Z,100013.00
2023-04-23T19:09:32.792Z,100016.00
2023-04-23T19:12:03.690Z,100018.00
2023-04-23T19:14:30.338Z,100023.00
2023-04-23T19:16:57.115Z,100019.00
2023-04-23T19:19:24.514Z,100031.00
2023-04-23T19:21:51.296Z,100037.00
2023-04-23T19:24:17.918Z,100040.00
2023-04-23T19:26:45.853Z,100045.00
2023-04-23T19:29:12.461Z,100045.00
2023-04-23T19:31:39.203Z,100053.00
2023-04-23T19:34:06.106Z,100059.00
2023-04-23T19:36:32.699Z,100057.00
2023-04-23T19:38:59.435Z,100063.00
2023-04-23T19:41:26.315Z,100059.00
2023-04-23T19:43:52.941Z,100060.00
2023-04-23T19:46:22.531Z,100056.00
2023-04-23T19:48:49.225Z,100064.00
2023-04-23T19:51:16.312Z,100066.00
2023-04-23T19:53:43.432Z,100068.00
2023-04-23T19:56:13.208Z,100070.00
2023-04-23T19:58:40.560Z,100073.00
2023-04-23T20:01:08.097Z,100075.00
2023-04-23T20:03:35.033Z,100077.00
2023-04-23T20:06:01.859Z,100083.00
2023-04-23T20:08:41.496Z,100088.00
2023-04-23T20:11:11.277Z,100079.00
2023-04-23T20:13:37.967Z,100089.00
2023-04-23T20:16:04.712Z,100084.00
2023-04-23T20:18:35.678Z,100087.00
2023-04-23T20:21:02.438Z,100082.00
2023-04-23T20:23:29.104Z,100078.00
2023-04-23T20:25:55.786Z,100082.00
2023-04-23T20:28:22.601Z,100078.00
2023-04-23T20:30:49.475Z,100090.00
2023-04-23T20:33:16.646Z,100093.00
2023-04-23T20:35:43.672Z,100099.00
2023-04-23T20:38:10.571Z,100105.00
2023-04-23T20:40:37.522Z,100103.00
2023-04-23T20:43:04.862Z,100098.00
2023-04-23T20:45:32.566Z,100096.00
2023-04-23T20:48:02.050Z,100104.00
2023-04-23T20:50:30.824Z,100098.00
2023-04-23T20:52:57.515Z,100095.00
2023-04-23T20:55:24.333Z,100102.00
2023-04-23T20:57:50.989Z,100093.00
2023-04-23T21:00:20.291Z,100094.00
2023-04-23T21:02:47.074Z,100100.00
2023-04-23T21:05:13.998Z,100092.00
2023-04-23T21:07:40.907Z,100101.00
2023-04-23T21:10:07.969Z,100103.00
2023-04-23T21:12:35.328Z,100102.00
2023-04-23T21:15:01.983Z,100095.00
2023-04-23T21:17:28.801Z,100098.00
2023-04-23T21:19:55.501Z,100106.00
2023-04-23T21:22:22.227Z,100103.00
2023-04-23T21:24:48.912Z,100106.00
2023-04-23T21:27:21.426Z,100108.00
2023-04-23T21:29:48.291Z,100108.00
2023-04-23T21:32:15.876Z,100110.00
2023-04-23T21:34:42.820Z,100109.00
2023-04-23T21:37:09.629Z,100117.00
2023-04-23T21:39:36.358Z,100115.00
2023-04-23T21:42:03.331Z,100116.00
2023-04-23T21:44:31.283Z,100118.00
2023-04-23T21:46:57.966Z,100122.00
2023-04-23T21:49:24.784Z,100115.00
2023-04-23T21:51:54.701Z,100115.00
2023-04-23T21:54:21.960Z,100117.00
2023-04-23T21:56:48.707Z,100120.00
2023-04-23T21:59:15.578Z,100122.00
2023-04-23T22:01:42.255Z,100122.00
2023-04-23T22:04:09.061Z,100128.00
2023-04-23T22:06:35.895Z,100123.00
2023-04-23T22:09:02.858Z,100126.00
2023-04-23T22:11:30.591Z,100121.00
2023-04-23T22:13:57.447Z,100116.00
2023-04-23T22:16:28.547Z,100132.00
2023-04-23T22:18:57.239Z,100126.00
2023-04-23T22:21:23.874Z,100133.00
2023-04-23T22:23:51.165Z,100132.00
2023-04-23T22:26:18.129Z,100123.00
2023-04-23T22:28:45.100Z,100133.00
2023-04-23T22:31:11.806Z,100127.00
2023-04-23T22:33:38.681Z,100125.00
2023-04-23T22:36:05.563Z,100135.00
2023-04-23T22:38:32.329Z,100131.00
2023-04-23T22:40:59.568Z,100135.00
2023-04-23T22:43:26.361Z,100136.00
2023-04-23T22:45:53.058Z,100139.00
2023-04-23T22:48:19.709Z,100143.00
2023-04-23T22:50:46.327Z,100141.00
2023-04-23T22:53:12.981Z,100141.00
2023-04-23T22:55:39.862Z,100148.00
2023-04-23T22:58:06.550Z,100148.00
2023-04-23T23:00:33.263Z,100148.00
2023-04-23T23:03:00.013Z,100149.00
2023-04-23T23:05:26.770Z,100149.00
2023-04-23T23:07:54.419Z,100155.00
2023-04-23T23:10:22.893Z,100151.00
2023-04-23T23:12:49.756Z,100153.00
2023-04-23T23:15:16.430Z,100157.00
2023-04-23T23:17:43.100Z,100149.00
2023-04-23T23:20:11.714Z,100152.00
2023-04-23T23:22:38.451Z,100154.00
2023-04-23T23:25:07.097Z,100155.00
2023-04-23T23:27:33.697Z,100155.00
2023-04-23T23:30:05.634Z,100158.00
2023-04-23T23:32:36.133Z,100151.00
2023-04-23T23:35:03.977Z,100171.00
2023-04-23T23:37:30.665Z,100165.00
2023-04-23T23:39:57.429Z,100162.00
2023-04-23T23:42:24.142Z,100168.00
2023-04-23T23:44:50.906Z,100168.00
2023-04-23T23:47:17.656Z,100173.00
2023-04-23T23:49:44.542Z,100174.00
2023-04-23T23:52:11.364Z,100178.00
2023-04-23T23:54:38.045Z,100177.00
2023-04-23T23:57:04.775Z,100174.00
2023-04-23T23:59:31.417Z,100187.00
